createdAt,value
2023-03-23T15:59:06.253Z,1.40
2023-03-23T16:01:33.040Z,1.50
2023-03-23T16:04:07.607Z,1.60
2023-03-23T16:06:35.663Z,1.92
2023-03-23T16:09:03.588Z,1.30
2023-03-23T16:11:31.523Z,1.65
2023-03-23T16:13:58.580Z,1.83
2023-03-23T16:16:27.766Z,1.92
2023-03-23T16:18:54.422Z,1.40
2023-03-23T16:21:21.180Z,1.10
2023-03-23T16:23:47.666Z,1.65
2023-03-23T16:26:15.137Z,1.95
2023-03-23T16:28:42.181Z,1.35
2023-03-23T16:31:09.044Z,1.20
2023-03-23T16:33:35.691Z,1.77
2023-03-23T16:36:02.873Z,1.10
2023-03-23T16:38:29.426Z,1.35
2023-03-23T16:40:55.918Z,1.65
2023-03-23T16:43:22.643Z,1.30
2023-03-23T16:45:49.356Z,2.92
2023-03-23T16:48:16.962Z,1.23
2023-03-23T16:50:44.354Z,1.58
2023-03-23T16:53:11.154Z,1.52
2023-03-23T16:55:38.452Z,1.30
2023-03-23T16:58:16.273Z,1.27
2023-03-23T17:00:45.579Z,1.20
2023-03-23T17:03:13.323Z,1.15
2023-03-23T17:05:41.551Z,1.35
2023-03-23T17:08:08.190Z,1.50
2023-03-23T17:10:34.773Z,1.65
2023-03-23T17:13:01.869Z,1.40
2023-03-23T17:15:28.595Z,2.00
2023-03-23T17:17:55.383Z,1.70
2023-03-23T17:20:22.438Z,1.50
2023-03-23T17:22:49.411Z,1.30
2023-03-23T17:25:16.098Z,1.50
2023-03-23T17:27:42.897Z,1.30
2023-03-23T17:30:11.252Z,1.33
2023-03-23T17:32:38.298Z,1.50
2023-03-23T17:35:06.588Z,1.27
2023-03-23T17:37:33.345Z,1.10
2023-03-23T17:40:00.946Z,1.20
2023-03-23T17:42:27.637Z,1.52
2023-03-23T17:44:54.107Z,1.40
2023-03-23T17:47:20.857Z,1.20
2023-03-23T17:49:47.911Z,1.20
2023-03-23T17:52:14.708Z,1.42
2023-03-23T17:54:41.255Z,1.50
2023-03-23T17:57:08.292Z,1.70
2023-03-23T17:59:34.888Z,1.63
2023-03-23T18:02:01.436Z,2.40
2023-03-23T18:04:27.988Z,2.45
2023-03-23T18:06:56.609Z,2.65
2023-03-23T18:09:24.211Z,3.05
2023-03-23T18:11:51.284Z,2.20
2023-03-23T18:14:18.264Z,1.70
2023-03-23T18:16:44.993Z,2.28
2023-03-23T18:19:11.952Z,2.20
2023-03-23T18:21:38.989Z,2.17
2023-03-23T18:24:05.710Z,2.45
2023-03-23T18:26:32.243Z,2.50
2023-03-23T18:28:58.680Z,2.80
2023-03-23T18:31:25.426Z,2.00
2023-03-23T18:33:54.429Z,1.77
2023-03-23T18:36:24.299Z,1.90
2023-03-23T18:38:51.162Z,1.50
2023-03-23T18:41:18.362Z,2.05
2023-03-23T18:43:44.891Z,2.00
2023-03-23T18:46:11.397Z,2.00
2023-03-23T18:48:37.906Z,1.73
2023-03-23T18:51:04.592Z,2.00
2023-03-23T18:53:31.309Z,2.40
2023-03-23T18:56:09.717Z,2.15
2023-03-23T18:58:36.603Z,2.20
2023-03-23T19:01:07.033Z,2.22
2023-03-23T19:03:35.301Z,2.10
2023-03-23T19:06:02.213Z,2.20
2023-03-23T19:08:29.442Z,1.98
2023-03-23T19:10:59.888Z,2.63
2023-03-23T19:13:28.443Z,2.53
2023-03-23T19:15:55.183Z,2.22
2023-03-23T19:18:22.124Z,2.47
2023-03-23T19:23:22.207Z,3.42
2023-03-23T19:25:48.950Z,3.07
2023-03-23T19:30:47.422Z,3.65
2023-03-23T19:33:15.204Z,3.10
2023-03-23T19:35:42.030Z,3.13
2023-03-23T19:38:09.145Z,3.00
2023-03-23T19:40:41.474Z,4.40
2023-03-23T19:43:09.382Z,4.95
2023-03-23T19:45:36.941Z,3.42
2023-03-23T19:48:03.925Z,4.10
2023-03-23T19:50:31.760Z,3.38
2023-03-23T19:53:00.163Z,3.90
2023-03-23T19:55:27.314Z,5.30
2023-03-23T19:57:54.076Z,5.70
2023-03-23T20:00:20.823Z,6.35
2023-03-23T20:02:49.923Z,5.00
2023-03-23T20:05:16.606Z,4.40
2023-03-23T20:07:46.441Z,5.28
2023-03-23T20:10:16.391Z,9.43
2023-03-23T20:12:42.877Z,12.68
2023-03-23T20:15:09.534Z,6.07
2023-03-23T20:17:36.371Z,4.80
2023-03-23T20:20:06.351Z,4.40
2023-03-23T20:22:33.804Z,4.13
2023-03-23T20:25:00.759Z,4.03
2023-03-23T20:27:27.688Z,4.75
2023-03-23T20:29:57.327Z,4.93
2023-03-23T20:32:23.888Z,4.80
2023-03-23T20:34:50.431Z,5.63
2023-03-23T20:37:20.734Z,5.03
2023-03-23T20:39:48.715Z,4.70
2023-03-23T20:42:15.814Z,4.80
2023-03-23T20:44:42.910Z,4.25
2023-03-23T20:47:09.848Z,4.80
2023-03-23T20:49:37.886Z,4.85
2023-03-23T20:52:06.164Z,3.97
2023-03-23T20:54:32.847Z,4.95
2023-03-23T20:56:59.720Z,4.63
2023-03-23T20:59:26.608Z,5.55
2023-03-23T21:01:53.095Z,5.10
2023-03-23T21:04:23.128Z,5.13
2023-03-23T21:06:49.730Z,5.28
2023-03-23T21:09:17.305Z,4.13
2023-03-23T21:11:44.936Z,4.40
2023-03-23T21:14:11.775Z,4.72
2023-03-23T21:16:39.005Z,4.55
2023-03-23T21:19:06.012Z,4.30
2023-03-23T21:21:34.217Z,4.57
2023-03-23T21:24:01.112Z,4.80
2023-03-23T21:26:29.361Z,3.90
2023-03-23T21:28:59.763Z,4.13
2023-03-23T21:31:30.509Z,3.30
2023-03-23T21:33:58.094Z,2.97
2023-03-23T21:36:25.510Z,3.40
2023-03-23T21:38:52.854Z,3.13
2023-03-23T21:41:19.422Z,2.63
2023-03-23T21:43:46.915Z,3.13
2023-03-23T21:46:18.045Z,3.05
2023-03-23T21:48:51.261Z,3.08
2023-03-23T21:51:28.824Z,3.05
2023-03-23T21:53:56.254Z,2.50
2023-03-23T21:56:24.902Z,3.05
2023-03-23T21:58:51.675Z,3.28
2023-03-23T22:01:19.216Z,2.80
2023-03-23T22:03:45.876Z,2.60
2023-03-23T22:06:23.260Z,2.35
2023-03-23T22:08:50.083Z,1.80
2023-03-23T22:11:23.046Z,2.10
2023-03-23T22:13:50.366Z,2.00
2023-03-23T22:16:18.319Z,2.50
2023-03-23T22:18:46.305Z,1.88
2023-03-23T22:21:14.084Z,1.85
2023-03-23T22:23:41.126Z,1.88
2023-03-23T22:26:08.541Z,1.80
2023-03-23T22:28:37.113Z,1.90
2023-03-23T22:31:11.852Z,1.83
2023-03-23T22:33:38.667Z,2.05
2023-03-23T22:36:06.670Z,1.90
2023-03-23T22:38:34.789Z,1.92
2023-03-23T22:41:06.947Z,2.00
2023-03-23T22:43:37.008Z,1.70
2023-03-23T22:46:04.655Z,2.00
2023-03-23T22:48:31.604Z,2.20
2023-03-23T22:50:58.527Z,2.00
2023-03-23T22:53:25.930Z,2.15
2023-03-23T22:55:54.873Z,1.98
2023-03-23T22:58:21.808Z,1.92
2023-03-23T23:00:50.120Z,1.90
2023-03-23T23:03:17.262Z,2.35
2023-03-23T23:05:46.441Z,2.20
2023-03-23T23:08:14.628Z,1.63
2023-03-23T23:10:44.656Z,1.98
2023-03-23T23:13:12.852Z,2.20
2023-03-23T23:15:47.113Z,2.28
2023-03-23T23:18:13.874Z,2.20
2023-03-23T23:20:41.398Z,2.40
2023-03-23T23:23:08.211Z,2.50
2023-03-23T23:25:35.161Z,2.90
2023-03-23T23:28:03.661Z,2.88
2023-03-23T23:30:30.762Z,3.00
2023-03-23T23:32:58.812Z,2.80
2023-03-23T23:35:25.769Z,2.75
2023-03-23T23:37:52.577Z,2.88
2023-03-23T23:40:19.931Z,2.90
2023-03-23T23:42:49.133Z,2.80
2023-03-23T23:45:16.038Z,2.97
2023-03-23T23:47:42.585Z,2.63
2023-03-23T23:50:11.472Z,2.85
2023-03-23T23:52:38.983Z,2.47
2023-03-23T23:55:07.514Z,2.75
2023-03-23T23:57:34.440Z,2.50
